sensor_id;sensor_type;location;lat;lon;timestamp;pressure;altitude;pressure_sealevel;temperature;humidity
47716;BME280;33476;50.984;3.538;2023-02-28T00:00:47;103126.88;;;5.14;47.12
47716;BME280;33476;50.984;3.538;2023-02-28T00:03:13;103131.16;;;5.12;47.27
47716;BME280;33476;50.984;3.538;2023-02-28T00:05:38;103124.22;;;5.07;47.23
47716;BME280;33476;50.984;3.538;2023-02-28T00:08:04;103131.97;;;5.06;47.29
47716;BME280;33476;50.984;3.538;2023-02-28T00:10:31;103132.78;;;5.03;47.56
47716;BME280;33476;50.984;3.538;2023-02-28T00:13:01;103131.88;;;4.98;47.46
47716;BME280;33476;50.984;3.538;2023-02-28T00:15:27;103132.75;;;4.99;47.52
47716;BME280;33476;50.984;3.538;2023-02-28T00:17:53;103141.28;;;4.92;47.39
47716;BME280;33476;50.984;3.538;2023-02-28T00:20:19;103130.03;;;4.88;47.88
47716;BME280;33476;50.984;3.538;2023-02-28T00:22:46;103129.09;;;4.85;47.89
47716;BME280;33476;50.984;3.538;2023-02-28T00:25:14;103128.22;;;4.83;47.99
47716;BME280;33476;50.984;3.538;2023-02-28T00:27:40;103123.00;;;4.79;47.67
47716;BME280;33476;50.984;3.538;2023-02-28T00:30:12;103122.09;;;4.76;48.14
47716;BME280;33476;50.984;3.538;2023-02-28T00:32:38;103125.53;;;4.75;47.85
47716;BME280;33476;50.984;3.538;2023-02-28T00:35:04;103131.56;;;4.75;47.99
47716;BME280;33476;50.984;3.538;2023-02-28T00:37:30;103134.13;;;4.72;47.91
47716;BME280;33476;50.984;3.538;2023-02-28T00:39:56;103136.66;;;4.69;47.96
47716;BME280;33476;50.984;3.538;2023-02-28T00:42:21;103130.59;;;4.66;48.05
47716;BME280;33476;50.984;3.538;2023-02-28T00:44:46;103134.06;;;4.66;48.26
47716;BME280;33476;50.984;3.538;2023-02-28T00:47:13;103136.56;;;4.63;48.11
47716;BME280;33476;50.984;3.538;2023-02-28T00:49:39;103133.19;;;4.66;48.12
47716;BME280;33476;50.984;3.538;2023-02-28T00:52:04;103131.47;;;4.68;48.15
47716;BME280;33476;50.984;3.538;2023-02-28T00:54:29;103126.31;;;4.71;48.34
47716;BME280;33476;50.984;3.538;2023-02-28T00:56:55;103123.78;;;4.72;48.39
47716;BME280;33476;50.984;3.538;2023-02-28T00:59:20;103128.03;;;4.70;48.25
47716;BME280;33476;50.984;3.538;2023-02-28T01:01:46;103128.03;;;4.67;48.31
47716;BME280;33476;50.984;3.538;2023-02-28T01:04:12;103140.09;;;4.68;48.48
47716;BME280;33476;50.984;3.538;2023-02-28T01:06:38;103139.25;;;4.69;48.37
47716;BME280;33476;50.984;3.538;2023-02-28T01:09:05;103142.72;;;4.71;48.67
47716;BME280;33476;50.984;3.538;2023-02-28T01:11:31;103133.28;;;4.73;48.23
47716;BME280;33476;50.984;3.538;2023-02-28T01:13:58;103136.75;;;4.74;48.47
47716;BME280;33476;50.984;3.538;2023-02-28T01:16:24;103141.84;;;4.71;48.68
47716;BME280;33476;50.984;3.538;2023-02-28T01:18:49;103143.63;;;4.72;48.89
47716;BME280;33476;50.984;3.538;2023-02-28T01:21:17;103147.03;;;4.71;49.00
47716;BME280;33476;50.984;3.538;2023-02-28T01:23:43;103151.41;;;4.73;49.06
47716;BME280;33476;50.984;3.538;2023-02-28T01:26:20;103159.16;;;4.72;48.73
47716;BME280;33476;50.984;3.538;2023-02-28T01:28:46;103149.69;;;4.74;49.16
47716;BME280;33476;50.984;3.538;2023-02-28T01:31:12;103148.84;;;4.75;49.02
47716;BME280;33476;50.984;3.538;2023-02-28T01:33:37;103154.88;;;4.74;49.18
47716;BME280;33476;50.984;3.538;2023-02-28T01:36:11;103149.59;;;4.69;49.12
47716;BME280;33476;50.984;3.538;2023-02-28T01:38:36;103155.72;;;4.74;49.04
47716;BME280;33476;50.984;3.538;2023-02-28T01:41:02;103147.94;;;4.73;49.42
47716;BME280;33476;50.984;3.538;2023-02-28T01:43:30;103148.75;;;4.70;49.39
47716;BME280;33476;50.984;3.538;2023-02-28T01:45:57;103136.69;;;4.71;49.48
47716;BME280;33476;50.984;3.538;2023-02-28T01:48:26;103141.84;;;4.68;49.67
47716;BME280;33476;50.984;3.538;2023-02-28T01:50:53;103139.25;;;4.69;49.18
47716;BME280;33476;50.984;3.538;2023-02-28T01:53:24;103140.09;;;4.67;49.02
47716;BME280;33476;50.984;3.538;2023-02-28T01:55:52;103128.00;;;4.66;49.33
47716;BME280;33476;50.984;3.538;2023-02-28T01:58:18;103131.38;;;4.60;49.61
47716;BME280;33476;50.984;3.538;2023-02-28T02:00:44;103132.19;;;4.56;49.90
47716;BME280;33476;50.984;3.538;2023-02-28T02:03:13;103132.09;;;4.48;49.77
47716;BME280;33476;50.984;3.538;2023-02-28T02:05:40;103129.44;;;4.45;49.42
47716;BME280;33476;50.984;3.538;2023-02-28T02:08:16;103126.78;;;4.39;49.71
47716;BME280;33476;50.984;3.538;2023-02-28T02:10:44;103119.81;;;4.37;49.51
47716;BME280;33476;50.984;3.538;2023-02-28T02:13:21;103119.69;;;4.29;49.87
47716;BME280;33476;50.984;3.538;2023-02-28T02:21:18;103119.63;;;4.23;49.95
47716;BME280;33476;50.984;3.538;2023-02-28T02:40:31;103108.34;;;4.18;50.17
47716;BME280;33476;50.984;3.538;2023-02-28T02:43:04;103107.47;;;4.17;50.39
47716;BME280;33476;50.984;3.538;2023-02-28T02:45:35;103110.06;;;4.17;50.52
47716;BME280;33476;50.984;3.538;2023-02-28T02:48:05;103103.16;;;4.16;50.47
47716;BME280;33476;50.984;3.538;2023-02-28T02:50:38;103106.50;;;4.11;50.53
47716;BME280;33476;50.984;3.538;2023-02-28T02:53:06;103107.34;;;4.10;50.45
47716;BME280;33476;50.984;3.538;2023-02-28T02:55:37;103109.91;;;4.08;50.48
47716;BME280;33476;50.984;3.538;2023-02-28T02:58:08;103098.72;;;4.09;50.72
47716;BME280;33476;50.984;3.538;2023-02-28T03:00:42;103111.63;;;4.06;50.65
47716;BME280;33476;50.984;3.538;2023-02-28T03:03:12;103111.63;;;4.08;50.72
47716;BME280;33476;50.984;3.538;2023-02-28T03:05:48;103115.84;;;4.03;50.99
47716;BME280;33476;50.984;3.538;2023-02-28T03:08:14;103114.19;;;4.06;50.72
47716;BME280;33476;50.984;3.538;2023-02-28T03:10:45;103112.44;;;4.05;50.73
47716;BME280;33476;50.984;3.538;2023-02-28T03:13:18;103112.44;;;4.05;50.80
47716;BME280;33476;50.984;3.538;2023-02-28T03:16:32;103119.31;;;4.03;50.81
47716;BME280;33476;50.984;3.538;2023-02-28T03:19:18;103116.75;;;4.05;51.11
47716;BME280;33476;50.984;3.538;2023-02-28T03:21:58;103102.03;;;3.99;51.34
47716;BME280;33476;50.984;3.538;2023-02-28T03:24:47;103108.91;;;3.99;51.27
47716;BME280;33476;50.984;3.538;2023-02-28T03:29:51;103106.34;;;4.02;51.27
47716;BME280;33476;50.984;3.538;2023-02-28T03:32:25;103110.78;;;4.07;51.25
47716;BME280;33476;50.984;3.538;2023-02-28T03:35:02;103107.25;;;4.05;51.88
47716;BME280;33476;50.984;3.538;2023-02-28T03:37:34;103099.56;;;4.07;51.29
47716;BME280;33476;50.984;3.538;2023-02-28T03:40:13;103118.47;;;4.04;51.73
47716;BME280;33476;50.984;3.538;2023-02-28T03:42:42;103107.31;;;4.07;51.83
47716;BME280;33476;50.984;3.538;2023-02-28T03:45:11;103103.84;;;4.06;51.75
47716;BME280;33476;50.984;3.538;2023-02-28T03:47:48;103098.69;;;4.06;51.87
47716;BME280;33476;50.984;3.538;2023-02-28T03:50:20;103107.31;;;4.07;51.93
47716;BME280;33476;50.984;3.538;2023-02-28T03:52:54;103104.75;;;4.10;52.35
47716;BME280;33476;50.984;3.538;2023-02-28T03:55:29;103106.56;;;4.14;52.06
47716;BME280;33476;50.984;3.538;2023-02-28T04:01:12;103110.84;;;4.13;52.25
47716;BME280;33476;50.984;3.538;2023-02-28T04:03:40;103108.34;;;4.19;52.32
47716;BME280;33476;50.984;3.538;2023-02-28T04:06:07;103103.19;;;4.19;52.24
47716;BME280;33476;50.984;3.538;2023-02-28T04:08:33;103111.81;;;4.21;52.51
47716;BME280;33476;50.984;3.538;2023-02-28T04:11:06;103109.22;;;4.20;52.77
47716;BME280;33476;50.984;3.538;2023-02-28T04:13:37;103124.00;;;4.29;52.44
47716;BME280;33476;50.984;3.538;2023-02-28T04:16:06;103114.56;;;4.31;52.73
47716;BME280;33476;50.984;3.538;2023-02-28T04:18:37;103113.78;;;4.38;52.78
47716;BME280;33476;50.984;3.538;2023-02-28T04:21:03;103112.06;;;4.38;52.81
47716;BME280;33476;50.984;3.538;2023-02-28T04:23:28;103108.69;;;4.42;53.02
47716;BME280;33476;50.984;3.538;2023-02-28T04:25:55;103121.66;;;4.45;52.95
47716;BME280;33476;50.984;3.538;2023-02-28T04:28:20;103119.13;;;4.48;53.05
47716;BME280;33476;50.984;3.538;2023-02-28T04:30:46;103123.47;;;4.51;52.79
47716;BME280;33476;50.984;3.538;2023-02-28T04:33:11;103115.75;;;4.54;53.32
47716;BME280;33476;50.984;3.538;2023-02-28T04:35:36;103114.97;;;4.60;53.00
47716;BME280;33476;50.984;3.538;2023-02-28T04:38:02;103120.22;;;4.64;53.19
47716;BME280;33476;50.984;3.538;2023-02-28T04:40:27;103119.41;;;4.68;53.13
47716;BME280;33476;50.984;3.538;2023-02-28T04:42:52;103123.78;;;4.72;53.12
47716;BME280;33476;50.984;3.538;2023-02-28T04:45:18;103128.97;;;4.72;53.42
47716;BME280;33476;50.984;3.538;2023-02-28T04:47:43;103131.56;;;4.74;53.35
47716;BME280;33476;50.984;3.538;2023-02-28T04:50:09;103128.13;;;4.75;53.40
47716;BME280;33476;50.984;3.538;2023-02-28T04:52:34;103135.91;;;4.76;53.12
47716;BME280;33476;50.984;3.538;2023-02-28T04:55:00;103136.84;;;4.82;53.52
47716;BME280;33476;50.984;3.538;2023-02-28T04:57:25;103133.44;;;4.86;53.58
47716;BME280;33476;50.984;3.538;2023-02-28T04:59:50;103136.03;;;4.87;53.49
47716;BME280;33476;50.984;3.538;2023-02-28T05:02:15;103135.22;;;4.90;53.51
47716;BME280;33476;50.984;3.538;2023-02-28T05:04:41;103129.19;;;4.92;53.53
47716;BME280;33476;50.984;3.538;2023-02-28T05:07:06;103134.41;;;4.94;53.39
47716;BME280;33476;50.984;3.538;2023-02-28T05:09:31;103137.88;;;4.96;53.65
47716;BME280;33476;50.984;3.538;2023-02-28T05:11:58;103142.22;;;4.97;53.46
47716;BME280;33476;50.984;3.538;2023-02-28T05:14:23;103131.88;;;4.98;53.69
47716;BME280;33476;50.984;3.538;2023-02-28T05:16:48;103134.47;;;5.00;53.44
47716;BME280;33476;50.984;3.538;2023-02-28T05:19:14;103134.47;;;5.00;53.67
47716;BME280;33476;50.984;3.538;2023-02-28T05:21:41;103135.38;;;5.02;53.49
47716;BME280;33476;50.984;3.538;2023-02-28T05:24:10;103142.25;;;5.01;53.94
47716;BME280;33476;50.984;3.538;2023-02-28T05:26:38;103147.50;;;5.06;53.77
47716;BME280;33476;50.984;3.538;2023-02-28T05:29:04;103133.72;;;5.08;53.61
47716;BME280;33476;50.984;3.538;2023-02-28T05:31:30;103136.31;;;5.10;53.88
47716;BME280;33476;50.984;3.538;2023-02-28T05:33:55;103144.16;;;5.13;53.65
47716;BME280;33476;50.984;3.538;2023-02-28T05:36:20;103141.56;;;5.15;53.82
47716;BME280;33476;50.984;3.538;2023-02-28T05:38:47;103142.44;;;5.15;53.93
47716;BME280;33476;50.984;3.538;2023-02-28T05:41:13;103138.16;;;5.19;54.09
47716;BME280;33476;50.984;3.538;2023-02-28T05:43:39;103148.53;;;5.20;53.88
47716;BME280;33476;50.984;3.538;2023-02-28T05:46:09;103139.06;;;5.22;54.10
47716;BME280;33476;50.984;3.538;2023-02-28T05:48:36;103130.47;;;5.26;53.87
47716;BME280;33476;50.984;3.538;2023-02-28T05:51:03;103131.31;;;5.25;53.96
47716;BME280;33476;50.984;3.538;2023-02-28T05:53:29;103134.78;;;5.26;53.78
47716;BME280;33476;50.984;3.538;2023-02-28T05:55:54;103133.06;;;5.28;53.91
47716;BME280;33476;50.984;3.538;2023-02-28T05:58:20;103130.50;;;5.29;53.72
47716;BME280;33476;50.984;3.538;2023-02-28T06:00:46;103133.06;;;5.29;54.00
47716;BME280;33476;50.984;3.538;2023-02-28T06:03:11;103142.63;;;5.33;53.95
47716;BME280;33476;50.984;3.538;2023-02-28T06:05:37;103147.00;;;5.38;53.91
47716;BME280;33476;50.984;3.538;2023-02-28T06:08:03;103142.72;;;5.38;54.07
47716;BME280;33476;50.984;3.538;2023-02-28T06:10:29;103150.47;;;5.38;54.43
47716;BME280;33476;50.984;3.538;2023-02-28T06:12:54;103154.81;;;5.39;54.45
47716;BME280;33476;50.984;3.538;2023-02-28T06:15:20;103152.22;;;5.41;54.11
47716;BME280;33476;50.984;3.538;2023-02-28T06:17:46;103156.56;;;5.42;54.19
47716;BME280;33476;50.984;3.538;2023-02-28T06:20:12;103164.31;;;5.42;54.61
47716;BME280;33476;50.984;3.538;2023-02-28T06:22:38;103159.13;;;5.40;54.56
47716;BME280;33476;50.984;3.538;2023-02-28T06:25:05;103167.81;;;5.45;54.25
47716;BME280;33476;50.984;3.538;2023-02-28T06:27:32;103159.16;;;5.43;54.63
47716;BME280;33476;50.984;3.538;2023-02-28T06:29:57;103170.44;;;5.48;54.57
47716;BME280;33476;50.984;3.538;2023-02-28T06:32:23;103166.13;;;5.49;54.72
47716;BME280;33476;50.984;3.538;2023-02-28T06:34:48;103164.41;;;5.51;54.82
47716;BME280;33476;50.984;3.538;2023-02-28T06:37:14;103172.22;;;5.54;54.59
47716;BME280;33476;50.984;3.538;2023-02-28T06:39:39;103167.09;;;5.57;54.83
47716;BME280;33476;50.984;3.538;2023-02-28T06:42:05;103167.09;;;5.58;54.67
47716;BME280;33476;50.984;3.538;2023-02-28T06:44:30;103163.66;;;5.59;54.75
47716;BME280;33476;50.984;3.538;2023-02-28T06:47:03;103158.53;;;5.64;54.82
47716;BME280;33476;50.984;3.538;2023-02-28T06:49:30;103176.66;;;5.64;54.80
47716;BME280;33476;50.984;3.538;2023-02-28T06:51:56;103174.97;;;5.66;55.00
47716;BME280;33476;50.984;3.538;2023-02-28T06:54:21;103170.66;;;5.70;54.72
47716;BME280;33476;50.984;3.538;2023-02-28T06:56:47;103174.16;;;5.73;54.86
47716;BME280;33476;50.984;3.538;2023-02-28T06:59:13;103167.25;;;5.72;55.06
47716;BME280;33476;50.984;3.538;2023-02-28T07:01:38;103169.84;;;5.75;55.04
47716;BME280;33476;50.984;3.538;2023-02-28T07:04:05;103160.38;;;5.77;54.99
47716;BME280;33476;50.984;3.538;2023-02-28T07:06:30;103159.50;;;5.78;55.31
47716;BME280;33476;50.984;3.538;2023-02-28T07:08:56;103165.59;;;5.80;55.17
47716;BME280;33476;50.984;3.538;2023-02-28T07:11:22;103162.97;;;5.79;55.05
47716;BME280;33476;50.984;3.538;2023-02-28T07:13:51;103166.47;;;5.81;55.14
47716;BME280;33476;50.984;3.538;2023-02-28T07:16:16;103174.25;;;5.82;54.77
47716;BME280;33476;50.984;3.538;2023-02-28T07:18:41;103168.22;;;5.83;55.11
47716;BME280;33476;50.984;3.538;2023-02-28T07:21:09;103174.25;;;5.82;54.68
47716;BME280;33476;50.984;3.538;2023-02-28T07:23:35;103167.34;;;5.83;55.01
47716;BME280;33476;50.984;3.538;2023-02-28T07:26:03;103169.09;;;5.85;54.89
47716;BME280;33476;50.984;3.538;2023-02-28T07:28:36;103171.69;;;5.85;55.11
47716;BME280;33476;50.984;3.538;2023-02-28T07:31:04;103166.53;;;5.90;55.11
47716;BME280;33476;50.984;3.538;2023-02-28T07:33:30;103171.78;;;5.93;54.91
47716;BME280;33476;50.984;3.538;2023-02-28T07:36:07;103172.63;;;5.92;55.14
47716;BME280;33476;50.984;3.538;2023-02-28T07:38:35;103164.06;;;5.99;55.42
47716;BME280;33476;50.984;3.538;2023-02-28T07:41:00;103160.59;;;5.99;55.07
47716;BME280;33476;50.984;3.538;2023-02-28T07:43:29;103167.53;;;6.00;54.80
47716;BME280;33476;50.984;3.538;2023-02-28T07:45:55;103165.00;;;6.06;54.01
47716;BME280;33476;50.984;3.538;2023-02-28T07:48:20;103167.59;;;6.09;53.93
47716;BME280;33476;50.984;3.538;2023-02-28T07:50:54;103161.56;;;6.11;53.55
47716;BME280;33476;50.984;3.538;2023-02-28T07:53:20;103163.34;;;6.15;53.47
47716;BME280;33476;50.984;3.538;2023-02-28T07:55:51;103154.69;;;6.16;52.82
47716;BME280;33476;50.984;3.538;2023-02-28T07:58:19;103159.94;;;6.21;52.91
47716;BME280;33476;50.984;3.538;2023-02-28T08:00:44;103161.66;;;6.24;52.83
47716;BME280;33476;50.984;3.538;2023-02-28T08:03:13;103161.66;;;6.25;52.30
47716;BME280;33476;50.984;3.538;2023-02-28T08:05:41;103157.41;;;6.30;52.38
47716;BME280;33476;50.984;3.538;2023-02-28T08:08:07;103151.41;;;6.43;52.02
47716;BME280;33476;50.984;3.538;2023-02-28T08:10:33;103156.66;;;6.46;51.65
47716;BME280;33476;50.984;3.538;2023-02-28T08:12:58;103159.19;;;6.45;51.61
47716;BME280;33476;50.984;3.538;2023-02-28T08:15:23;103153.19;;;6.49;50.95
47716;BME280;33476;50.984;3.538;2023-02-28T08:17:49;103160.97;;;6.51;51.20
47716;BME280;33476;50.984;3.538;2023-02-28T08:20:14;103165.31;;;6.53;50.91
47716;BME280;33476;50.984;3.538;2023-02-28T08:22:39;103166.19;;;6.54;51.16
47716;BME280;33476;50.984;3.538;2023-02-28T08:25:05;103163.59;;;6.52;51.33
47716;BME280;33476;50.984;3.538;2023-02-28T08:27:32;103155.84;;;6.57;51.22
47716;BME280;33476;50.984;3.538;2023-02-28T08:29:57;103155.84;;;6.58;50.76
47716;BME280;33476;50.984;3.538;2023-02-28T08:32:22;103160.16;;;6.59;50.64
47716;BME280;33476;50.984;3.538;2023-02-28T08:34:48;103151.56;;;6.65;50.81
47716;BME280;33476;50.984;3.538;2023-02-28T08:37:13;103149.84;;;6.70;51.21
47716;BME280;33476;50.984;3.538;2023-02-28T08:39:38;103145.53;;;6.78;50.37
47716;BME280;33476;50.984;3.538;2023-02-28T08:42:04;103152.47;;;6.76;50.53
47716;BME280;33476;50.984;3.538;2023-02-28T08:44:29;103159.41;;;6.75;50.20
47716;BME280;33476;50.984;3.538;2023-02-28T08:46:55;103153.34;;;6.78;49.77
47716;BME280;33476;50.984;3.538;2023-02-28T08:49:20;103158.56;;;6.80;49.79
47716;BME280;33476;50.984;3.538;2023-02-28T08:51:45;103167.22;;;6.80;49.33
47716;BME280;33476;50.984;3.538;2023-02-28T08:54:11;103167.22;;;6.80;49.41
47716;BME280;33476;50.984;3.538;2023-02-28T08:56:41;103170.69;;;6.81;49.09
47716;BME280;33476;50.984;3.538;2023-02-28T08:59:08;103167.22;;;6.79;49.30
47716;BME280;33476;50.984;3.538;2023-02-28T09:01:34;103166.31;;;6.75;49.08
47716;BME280;33476;50.984;3.538;2023-02-28T09:04:01;103172.41;;;6.79;49.37
47716;BME280;33476;50.984;3.538;2023-02-28T09:06:27;103169.78;;;6.75;49.10
47716;BME280;33476;50.984;3.538;2023-02-28T09:08:53;103180.16;;;6.75;49.67
47716;BME280;33476;50.984;3.538;2023-02-28T09:11:22;103175.84;;;6.74;49.64
47716;BME280;33476;50.984;3.538;2023-02-28T09:13:47;103175.84;;;6.74;49.56
47716;BME280;33476;50.984;3.538;2023-02-28T09:16:14;103181.91;;;6.75;49.23
47716;BME280;33476;50.984;3.538;2023-02-28T09:18:40;103179.31;;;6.76;49.38
47716;BME280;33476;50.984;3.538;2023-02-28T09:21:07;103177.56;;;6.74;49.34
47716;BME280;33476;50.984;3.538;2023-02-28T09:23:33;103178.44;;;6.73;49.19
47716;BME280;33476;50.984;3.538;2023-02-28T09:25:59;103174.97;;;6.75;49.18
47716;BME280;33476;50.984;3.538;2023-02-28T09:28:24;103170.66;;;6.78;49.10
47716;BME280;33476;50.984;3.538;2023-02-28T09:30:52;103163.75;;;6.80;48.90
47716;BME280;33476;50.984;3.538;2023-02-28T09:33:18;103175.88;;;6.81;49.04
47716;BME280;33476;50.984;3.538;2023-02-28T09:35:46;103168.94;;;6.78;48.38
47716;BME280;33476;50.984;3.538;2023-02-28T09:38:12;103168.06;;;6.74;48.08
47716;BME280;33476;50.984;3.538;2023-02-28T09:40:50;103164.53;;;6.63;47.32
47716;BME280;33476;50.984;3.538;2023-02-28T09:43:17;103168.81;;;6.57;47.13
47716;BME280;33476;50.984;3.538;2023-02-28T09:45:52;103167.03;;;6.48;47.11
47716;BME280;33476;50.984;3.538;2023-02-28T09:48:26;103178.34;;;6.58;47.41
47716;BME280;33476;50.984;3.538;2023-02-28T09:51:00;103167.97;;;6.59;46.53
47716;BME280;33476;50.984;3.538;2023-02-28T09:53:33;103160.16;;;6.56;46.65
47716;BME280;33476;50.984;3.538;2023-02-28T09:56:07;103171.41;;;6.60;46.67
47716;BME280;33476;50.984;3.538;2023-02-28T09:58:51;103169.72;;;6.65;46.15
47716;BME280;33476;50.984;3.538;2023-02-28T10:06:46;103157.66;;;6.71;45.79
47716;BME280;33476;50.984;3.538;2023-02-28T10:09:24;103157.66;;;6.73;45.51
47716;BME280;33476;50.984;3.538;2023-02-28T10:11:52;103144.72;;;6.85;45.54
47716;BME280;33476;50.984;3.538;2023-02-28T10:14:19;103163.81;;;6.89;45.12
47716;BME280;33476;50.984;3.538;2023-02-28T10:16:47;103163.78;;;6.86;44.95
47716;BME280;33476;50.984;3.538;2023-02-28T10:22:11;103158.56;;;6.86;44.46
47716;BME280;33476;50.984;3.538;2023-02-28T10:24:47;103154.25;;;6.86;44.17
47716;BME280;33476;50.984;3.538;2023-02-28T10:27:15;103147.34;;;6.94;44.37
47716;BME280;33476;50.984;3.538;2023-02-28T10:29:51;103137.88;;;6.96;44.13
47716;BME280;33476;50.984;3.538;2023-02-28T10:32:29;103142.22;;;7.03;43.90
47716;BME280;33476;50.984;3.538;2023-02-28T10:37:24;103135.31;;;7.09;43.47
47716;BME280;33476;50.984;3.538;2023-02-28T10:39:49;103133.53;;;7.03;43.99
47716;BME280;33476;50.984;3.538;2023-02-28T10:42:27;103148.28;;;7.09;43.73
47716;BME280;33476;50.984;3.538;2023-02-28T10:45:15;103136.19;;;7.15;43.96
47716;BME280;33476;50.984;3.538;2023-02-28T10:48:00;103131.00;;;7.14;42.73
47716;BME280;33476;50.984;3.538;2023-02-28T10:53:24;103120.66;;;7.37;42.09
47716;BME280;33476;50.984;3.538;2023-02-28T10:58:56;103122.41;;;7.47;42.59
47716;BME280;33476;50.984;3.538;2023-02-28T11:03:56;103112.00;;;7.51;41.13
47716;BME280;33476;50.984;3.538;2023-02-28T11:06:26;103104.22;;;7.54;41.53
47716;BME280;33476;50.984;3.538;2023-02-28T11:08:53;103110.28;;;7.69;41.67
47716;BME280;33476;50.984;3.538;2023-02-28T11:11:25;103107.72;;;7.81;41.04
47716;BME280;33476;50.984;3.538;2023-02-28T11:13:53;103108.56;;;8.09;40.79
47716;BME280;33476;50.984;3.538;2023-02-28T11:16:20;103097.25;;;8.28;40.00
47716;BME280;33476;50.984;3.538;2023-02-28T11:18:52;103092.03;;;8.40;39.94
47716;BME280;33476;50.984;3.538;2023-02-28T11:21:30;103086.78;;;8.59;39.91
47716;BME280;33476;50.984;3.538;2023-02-28T11:24:03;103088.41;;;8.84;40.11
47716;BME280;33476;50.984;3.538;2023-02-28T11:26:42;103076.13;;;9.09;39.94
47716;BME280;33476;50.984;3.538;2023-02-28T11:29:12;103080.38;;;9.25;39.67
47716;BME280;33476;50.984;3.538;2023-02-28T11:31:41;103072.44;;;9.41;39.27
47716;BME280;33476;50.984;3.538;2023-02-28T11:34:24;103071.50;;;9.54;38.99
47716;BME280;33476;50.984;3.538;2023-02-28T11:36:56;103059.94;;;9.82;38.46
47716;BME280;33476;50.984;3.538;2023-02-28T11:39:23;103052.69;;;10.13;37.90
47716;BME280;33476;50.984;3.538;2023-02-28T11:41:54;103051.69;;;10.25;37.46
47716;BME280;33476;50.984;3.538;2023-02-28T11:47:48;103056.22;;;10.09;36.91
47716;BME280;33476;50.984;3.538;2023-02-28T11:56:03;103049.91;;;10.30;36.51
47716;BME280;33476;50.984;3.538;2023-02-28T12:04:55;103041.84;;;10.52;36.00
47716;BME280;33476;50.984;3.538;2023-02-28T12:10:28;103029.47;;;10.64;35.60
47716;BME280;33476;50.984;3.538;2023-02-28T12:13:18;103024.31;;;10.58;35.78
47716;BME280;33476;50.984;3.538;2023-02-28T12:21:18;103017.50;;;10.47;34.94
47716;BME280;33476;50.984;3.538;2023-02-28T12:26:40;103012.09;;;10.59;34.62
47716;BME280;33476;50.984;3.538;2023-02-28T12:29:17;103002.63;;;10.53;34.46
47716;BME280;33476;50.984;3.538;2023-02-28T12:32:21;103002.81;;;10.38;34.59
47716;BME280;33476;50.984;3.538;2023-02-28T12:34:52;102991.66;;;10.21;34.39
47716;BME280;33476;50.984;3.538;2023-02-28T12:37:31;102998.69;;;10.14;34.36
47716;BME280;33476;50.984;3.538;2023-02-28T12:40:06;102996.06;;;10.19;34.42
47716;BME280;33476;50.984;3.538;2023-02-28T12:42:52;102989.03;;;10.24;34.04
47716;BME280;33476;50.984;3.538;2023-02-28T12:45:26;102987.34;;;10.17;33.49
47716;BME280;33476;50.984;3.538;2023-02-28T12:47:57;102989.28;;;10.02;33.61
47716;BME280;33476;50.984;3.538;2023-02-28T12:50:25;102990.19;;;9.97;33.60
47716;BME280;33476;50.984;3.538;2023-02-28T12:53:02;102983.28;;;9.94;33.67
47716;BME280;33476;50.984;3.538;2023-02-28T12:55:43;102979.59;;;10.10;33.99
47716;BME280;33476;50.984;3.538;2023-02-28T12:58:22;102968.19;;;10.18;33.59
47716;BME280;33476;50.984;3.538;2023-02-28T13:03:58;102955.09;;;10.21;32.94
47716;BME280;33476;50.984;3.538;2023-02-28T13:09:14;102963.56;;;10.41;33.04
47716;BME280;33476;50.984;3.538;2023-02-28T13:11:46;102949.78;;;10.31;32.29
47716;BME280;33476;50.984;3.538;2023-02-28T13:14:24;102956.94;;;10.12;32.56
47716;BME280;33476;50.984;3.538;2023-02-28T13:17:03;102957.81;;;10.13;32.32
47716;BME280;33476;50.984;3.538;2023-02-28T13:19:44;102956.03;;;10.15;31.60
47716;BME280;33476;50.984;3.538;2023-02-28T13:24:55;102959.47;;;10.20;31.61
47716;BME280;33476;50.984;3.538;2023-02-28T13:27:32;102962.09;;;10.19;31.66
47716;BME280;33476;50.984;3.538;2023-02-28T13:29:58;102948.22;;;10.13;31.61
47716;BME280;33476;50.984;3.538;2023-02-28T13:32:34;102943.16;;;10.01;31.18
47716;BME280;33476;50.984;3.538;2023-02-28T13:37:42;102944.03;;;9.99;30.95
47716;BME280;33476;50.984;3.538;2023-02-28T13:42:53;102932.56;;;10.13;30.65
47716;BME280;33476;50.984;3.538;2023-02-28T13:45:24;102941.44;;;9.99;30.31
47716;BME280;33476;50.984;3.538;2023-02-28T13:47:55;102939.78;;;9.93;30.49
47716;BME280;33476;50.984;3.538;2023-02-28T13:56:01;102947.66;;;9.87;30.65
47716;BME280;33476;50.984;3.538;2023-02-28T14:06:26;102940.94;;;9.65;30.37
47716;BME280;33476;50.984;3.538;2023-02-28T14:09:01;102954.22;;;9.43;29.63
47716;BME280;33476;50.984;3.538;2023-02-28T14:11:35;102957.81;;;9.25;30.43
47716;BME280;33476;50.984;3.538;2023-02-28T14:14:02;102949.13;;;9.25;30.28
47716;BME280;33476;50.984;3.538;2023-02-28T14:16:37;102951.78;;;9.20;30.44
47716;BME280;33476;50.984;3.538;2023-02-28T14:21:48;102954.34;;;9.28;30.14
47716;BME280;33476;50.984;3.538;2023-02-28T14:34:40;102945.63;;;9.26;29.70
47716;BME280;33476;50.984;3.538;2023-02-28T14:37:15;102942.13;;;9.32;29.95
47716;BME280;33476;50.984;3.538;2023-02-28T14:39:44;102940.38;;;9.32;30.46
47716;BME280;33476;50.984;3.538;2023-02-28T14:42:29;102945.69;;;9.21;30.19
47716;BME280;33476;50.984;3.538;2023-02-28T14:44:55;102938.78;;;9.19;30.67
47716;BME280;33476;50.984;3.538;2023-02-28T14:47:28;102938.84;;;9.07;30.48
47716;BME280;33476;50.984;3.538;2023-02-28T14:49:56;102946.66;;;9.11;30.74
47716;BME280;33476;50.984;3.538;2023-02-28T14:52:24;102942.19;;;9.22;30.88
47716;BME280;33476;50.984;3.538;2023-02-28T14:54:54;102943.91;;;9.25;30.97
47716;BME280;33476;50.984;3.538;2023-02-28T14:57:24;102935.28;;;9.18;30.76
47716;BME280;33476;50.984;3.538;2023-02-28T14:59:59;102935.28;;;9.18;30.39
47716;BME280;33476;50.984;3.538;2023-02-28T15:02:26;102938.84;;;9.08;30.28
47716;BME280;33476;50.984;3.538;2023-02-28T15:04:56;102940.66;;;8.97;30.50